Strona główna
METAR-TAF:

METAR-TAF

Lotnisko :

Yankton, Dakota Południowa, Stany Zjednoczone

Szerokość geograficzna: 42-55N, Długość geograficzna: 097-23W, wysokość: 398 m

Aktualna obserwacja pogody

Raport powstał 25 minut temu, godzina 21:56 UTC
Wiatr 14 kt od północny zachód w porywach dochodzący do 19 kt
Temperatura 15°C
Wilgotność 23%
Ciśnienie 1007 hPa
Widzialność: 16.1 km
bezchmurnie

METAR: KYKN 102156Z AUTO 32014G19KT 10SM CLR 15/M06 A2973 RMK AO2 SLP081 T01501061

czas: 17:21 (22:21 UTC)


TAF: brakujący

Obserwacja i prognoza pogody dla ponad 4000 lotnisk (raport METAR i TAF).

Dostępne stacje oznaczono żółtymi i czerwonymi punktami na mapie.

Najedź kursorem aby zobaczyć nazwę stacji.

Kliknij aby zobaczyć obserwacje i prognozy pogody.

Aby zmienić mapę: kliknij na zielony przycisk z czarnym krzyżykiem, aby powiększyć; na zielony przycisk z myślnikiem, aby pomniejszyć; na zielone strzałki, aby przejść do map sąsiednich.


METAR-TAF: